createdAt,value
2023-03-22T00:01:24.082Z,10.90
2023-03-22T00:03:52.804Z,10.02
2023-03-22T00:06:20.381Z,11.10
2023-03-22T00:08:53.916Z,11.48
2023-03-22T00:11:24.578Z,10.88
2023-03-22T00:13:52.895Z,11.32
2023-03-22T00:16:21.585Z,10.63
2023-03-22T00:18:49.429Z,10.70
2023-03-22T00:21:17.862Z,11.15
2023-03-22T00:23:46.141Z,11.15
2023-03-22T00:26:14.915Z,12.60
2023-03-22T00:28:42.964Z,10.82
2023-03-22T00:31:11.261Z,9.15
2023-03-22T00:33:38.822Z,10.13
2023-03-22T00:36:08.855Z,8.27
2023-03-22T00:38:44.110Z,8.57
2023-03-22T00:41:17.824Z,8.05
2023-03-22T00:43:46.483Z,8.73
2023-03-22T00:46:15.431Z,9.52
2023-03-22T00:48:42.951Z,9.77
2023-03-22T00:51:11.125Z,9.65
2023-03-22T00:53:42.536Z,9.32
2023-03-22T00:56:14.459Z,10.73
2023-03-22T00:58:42.984Z,10.70
2023-03-22T01:01:14.342Z,10.27
2023-03-22T01:03:43.820Z,11.63
2023-03-22T01:06:11.930Z,10.60
2023-03-22T01:08:39.573Z,11.48
2023-03-22T01:11:07.766Z,12.13
2023-03-22T01:13:38.237Z,10.98
2023-03-22T01:16:10.005Z,10.63
2023-03-22T01:18:37.926Z,10.52
2023-03-22T01:21:05.521Z,12.23
2023-03-22T01:23:32.787Z,10.75
2023-03-22T01:26:00.368Z,11.18
2023-03-22T01:28:28.711Z,10.93
2023-03-22T01:30:56.408Z,11.88
2023-03-22T01:33:23.936Z,9.18
2023-03-22T01:35:51.354Z,11.82
2023-03-22T01:38:19.122Z,11.40
2023-03-22T01:40:46.451Z,14.25
2023-03-22T01:43:16.336Z,11.70
2023-03-22T01:45:48.662Z,11.55
2023-03-22T01:48:46.439Z,10.52
2023-03-22T01:51:20.802Z,10.80
2023-03-22T01:53:54.983Z,13.38
2023-03-22T01:56:24.689Z,11.55
2023-03-22T01:58:55.453Z,11.50
2023-03-22T02:01:24.198Z,10.50
2023-03-22T02:04:20.312Z,10.52
2023-03-22T02:09:22.214Z,10.73
2023-03-22T02:12:12.671Z,11.57
2023-03-22T02:14:57.207Z,10.57
2023-03-22T02:17:36.588Z,11.70
2023-03-22T02:20:19.311Z,13.85
2023-03-22T02:23:02.790Z,10.32
2023-03-22T02:25:29.944Z,12.05
2023-03-22T02:28:09.149Z,11.43
2023-03-22T02:30:36.545Z,11.55
2023-03-22T02:33:17.075Z,11.40
2023-03-22T02:35:56.447Z,12.48
2023-03-22T02:38:48.887Z,11.18
2023-03-22T02:41:36.401Z,11.63
2023-03-22T02:44:12.978Z,11.32
2023-03-22T02:47:05.526Z,12.02
2023-03-22T02:49:46.305Z,11.98
2023-03-22T02:52:25.256Z,11.18
2023-03-22T02:55:05.021Z,10.75
2023-03-22T02:58:16.987Z,10.73
2023-03-22T03:00:47.470Z,10.60
2023-03-22T03:03:18.747Z,11.30
2023-03-22T03:05:54.870Z,10.68
2023-03-22T03:08:24.167Z,10.52
2023-03-22T03:10:53.121Z,10.48
2023-03-22T03:13:21.359Z,10.95
2023-03-22T03:16:00.061Z,11.73
2023-03-22T03:18:44.922Z,9.88
2023-03-22T03:21:42.867Z,10.00
2023-03-22T03:24:31.328Z,9.27
2023-03-22T03:27:07.536Z,9.75
2023-03-22T03:29:49.286Z,10.55
2023-03-22T03:32:31.805Z,10.38
2023-03-22T03:35:08.886Z,11.05
2023-03-22T03:37:41.801Z,9.75
2023-03-22T03:40:13.290Z,9.23
2023-03-22T03:42:53.488Z,10.07
2023-03-22T03:45:22.602Z,10.38
2023-03-22T03:47:57.340Z,10.32
2023-03-22T03:50:26.703Z,9.88
2023-03-22T03:52:55.959Z,10.30
2023-03-22T03:55:24.364Z,10.25
2023-03-22T03:57:51.772Z,9.52
2023-03-22T04:00:20.251Z,10.15
2023-03-22T04:02:47.948Z,10.93
2023-03-22T04:05:15.210Z,9.88
2023-03-22T04:07:42.935Z,10.80
2023-03-22T04:10:10.810Z,11.85
2023-03-22T04:12:38.258Z,10.57
2023-03-22T04:15:06.329Z,9.55
2023-03-22T04:17:33.694Z,9.73
2023-03-22T04:20:05.896Z,11.10
2023-03-22T04:22:38.836Z,12.07
2023-03-22T04:25:12.109Z,11.32
2023-03-22T04:27:40.764Z,10.10
2023-03-22T04:30:11.711Z,11.48
2023-03-22T04:32:39.402Z,11.88
2023-03-22T04:35:07.359Z,9.25
2023-03-22T04:37:35.062Z,9.75
2023-03-22T04:40:02.555Z,9.50
2023-03-22T04:42:29.959Z,10.75
2023-03-22T04:44:57.289Z,10.10
2023-03-22T04:47:24.525Z,10.30
2023-03-22T04:49:51.874Z,11.30
2023-03-22T04:52:19.104Z,10.27
2023-03-22T04:54:46.409Z,11.23
2023-03-22T04:57:13.824Z,10.00
2023-03-22T04:59:41.233Z,12.15
2023-03-22T05:02:08.712Z,10.13
2023-03-22T05:04:37.548Z,12.05
2023-03-22T05:07:05.041Z,9.15
2023-03-22T05:09:33.635Z,10.25
2023-03-22T05:12:01.112Z,10.77
2023-03-22T05:14:28.508Z,10.95
2023-03-22T05:16:56.639Z,9.27
2023-03-22T05:19:24.788Z,10.57
2023-03-22T05:21:58.514Z,9.82
2023-03-22T05:24:26.599Z,10.40
2023-03-22T05:26:56.587Z,9.57
2023-03-22T05:29:24.652Z,10.15
2023-03-22T05:31:51.930Z,10.45
2023-03-22T05:34:20.673Z,11.23
2023-03-22T05:36:48.535Z,10.57
2023-03-22T05:39:16.553Z,8.63
2023-03-22T05:41:44.113Z,9.35
2023-03-22T05:44:11.478Z,10.32
2023-03-22T05:46:38.874Z,10.98
2023-03-22T05:49:06.245Z,10.18
2023-03-22T05:51:34.400Z,11.07
2023-03-22T05:54:01.875Z,11.52
2023-03-22T05:56:29.278Z,10.93
2023-03-22T05:58:58.674Z,10.60
2023-03-22T06:01:25.934Z,10.52
2023-03-22T06:03:53.700Z,10.05
2023-03-22T06:06:21.550Z,9.80
2023-03-22T06:08:49.162Z,11.75
2023-03-22T06:11:16.829Z,11.82
2023-03-22T06:13:44.211Z,11.23
2023-03-22T06:16:11.969Z,10.45
2023-03-22T06:18:40.323Z,10.23
2023-03-22T06:21:08.162Z,13.40
2023-03-22T06:23:35.534Z,8.57
2023-03-22T06:26:02.721Z,8.85
2023-03-22T06:28:30.209Z,8.27
2023-03-22T06:30:57.804Z,9.52
2023-03-22T06:33:25.251Z,8.98
2023-03-22T06:35:52.503Z,9.45
2023-03-22T06:38:19.883Z,9.35
2023-03-22T06:40:47.291Z,9.65
2023-03-22T06:43:14.564Z,8.23
2023-03-22T06:45:41.914Z,8.73
2023-03-22T06:48:09.336Z,9.45
2023-03-22T06:50:40.370Z,8.68
2023-03-22T06:53:09.539Z,7.85
2023-03-22T06:55:36.763Z,10.05
2023-03-22T06:58:04.796Z,8.43
2023-03-22T07:00:34.514Z,9.65
2023-03-22T07:03:04.820Z,9.70
2023-03-22T07:05:32.201Z,7.85
2023-03-22T07:07:59.597Z,8.80
2023-03-22T07:10:26.842Z,9.55
2023-03-22T07:12:54.064Z,9.27
2023-03-22T07:15:24.847Z,10.18
2023-03-22T07:17:53.054Z,10.40
2023-03-22T07:20:20.767Z,8.52
2023-03-22T07:22:49.782Z,11.32
2023-03-22T07:25:17.155Z,7.80
2023-03-22T07:27:44.979Z,8.23
2023-03-22T07:30:12.903Z,8.40
2023-03-22T07:32:41.875Z,8.02
2023-03-22T07:35:09.435Z,8.38
2023-03-22T07:37:36.848Z,8.20
2023-03-22T07:40:05.431Z,8.48
2023-03-22T07:42:33.003Z,8.13
2023-03-22T07:45:00.724Z,9.57
2023-03-22T07:47:40.261Z,9.18
2023-03-22T07:50:09.988Z,9.57
2023-03-22T07:52:37.432Z,8.55
2023-03-22T07:55:05.631Z,10.13
2023-03-22T07:57:33.084Z,9.27
2023-03-22T08:00:01.118Z,8.63
2023-03-22T08:02:29.261Z,8.10
2023-03-22T08:04:56.889Z,10.02
2023-03-22T08:07:27.464Z,9.73
2023-03-22T08:09:54.960Z,9.43
2023-03-22T08:12:22.594Z,8.32
2023-03-22T08:14:51.417Z,9.40
2023-03-22T08:17:20.361Z,9.95
2023-03-22T08:19:47.596Z,8.82
2023-03-22T08:22:18.292Z,9.77
2023-03-22T08:24:45.906Z,9.85
2023-03-22T08:27:14.556Z,9.18
2023-03-22T08:29:42.108Z,9.65
2023-03-22T08:32:09.708Z,9.85
2023-03-22T08:34:41.747Z,10.40
2023-03-22T08:37:10.873Z,9.27
2023-03-22T08:39:38.860Z,9.82
2023-03-22T08:42:06.311Z,10.68
2023-03-22T08:44:33.727Z,9.98
2023-03-22T08:47:02.242Z,9.35
2023-03-22T08:49:31.842Z,10.65
2023-03-22T08:51:59.303Z,9.63
2023-03-22T08:54:28.490Z,10.65
2023-03-22T08:56:55.906Z,9.77
2023-03-22T08:59:23.070Z,9.80
2023-03-22T09:01:50.531Z,9.18
2023-03-22T09:04:18.052Z,11.10
2023-03-22T09:06:47.216Z,10.82
2023-03-22T09:09:15.125Z,10.23
2023-03-22T09:11:43.090Z,11.88
2023-03-22T09:14:10.997Z,11.35
2023-03-22T09:16:38.510Z,10.68
2023-03-22T09:19:07.032Z,9.05
2023-03-22T09:21:34.365Z,11.00
2023-03-22T09:24:01.598Z,11.05
2023-03-22T09:26:28.795Z,10.48
2023-03-22T09:28:56.171Z,11.63
2023-03-22T09:31:24.175Z,11.48
2023-03-22T09:33:52.080Z,11.25
2023-03-22T09:36:20.038Z,8.60
2023-03-22T09:38:50.212Z,9.50
2023-03-22T09:41:25.131Z,9.65
2023-03-22T09:43:57.728Z,9.43
2023-03-22T09:46:37.610Z,11.18
2023-03-22T09:49:27.283Z,9.60
2023-03-22T09:51:55.429Z,9.00
2023-03-22T09:54:36.044Z,8.75
2023-03-22T09:57:12.930Z,8.98
2023-03-22T10:00:14.947Z,7.90
2023-03-22T10:03:13.121Z,9.20
2023-03-22T10:06:20.624Z,8.23
2023-03-22T10:08:54.005Z,8.10
2023-03-22T10:11:36.214Z,7.18
2023-03-22T10:14:24.345Z,6.90
2023-03-22T10:16:56.503Z,7.25
2023-03-22T10:19:51.650Z,7.90
2023-03-22T10:22:25.341Z,6.95
2023-03-22T10:24:54.219Z,6.72
2023-03-22T10:27:22.963Z,8.73
2023-03-22T10:29:59.215Z,6.00
2023-03-22T10:32:51.256Z,7.55
2023-03-22T10:35:28.131Z,5.15
2023-03-22T10:37:57.956Z,4.45
2023-03-22T10:40:36.771Z,6.75
2023-03-22T10:43:26.202Z,4.65
2023-03-22T10:45:56.231Z,3.53
2023-03-22T10:48:33.152Z,4.00
2023-03-22T10:51:02.185Z,2.50
2023-03-22T10:53:38.964Z,2.72
2023-03-22T10:56:12.367Z,2.55
2023-03-22T10:58:39.731Z,3.67
2023-03-22T11:01:12.632Z,3.20
2023-03-22T11:03:43.294Z,3.33
2023-03-22T11:06:30.554Z,2.28
2023-03-22T11:09:13.128Z,3.13
2023-03-22T11:12:12.727Z,2.60
2023-03-22T11:14:45.021Z,2.90
2023-03-22T11:17:15.282Z,2.97
2023-03-22T11:19:54.125Z,2.85
2023-03-22T11:22:42.734Z,2.90
2023-03-22T11:25:19.000Z,2.08
2023-03-22T11:28:17.008Z,1.95
2023-03-22T11:30:59.851Z,1.73
2023-03-22T11:33:27.554Z,2.88
2023-03-22T11:36:00.166Z,4.10
2023-03-22T11:38:37.185Z,2.03
2023-03-22T11:41:22.562Z,2.20
2023-03-22T11:43:54.884Z,2.50
2023-03-22T11:46:23.687Z,2.45
2023-03-22T11:48:58.303Z,1.90
2023-03-22T11:51:33.778Z,1.70
2023-03-22T11:54:31.001Z,2.97
2023-03-22T11:57:06.250Z,3.97
2023-03-22T12:00:10.789Z,1.30
2023-03-22T12:03:04.531Z,1.70
2023-03-22T12:05:40.030Z,1.98
2023-03-22T12:08:17.580Z,1.25
2023-03-22T12:10:52.840Z,2.50
2023-03-22T12:13:22.246Z,2.25
2023-03-22T12:15:58.537Z,2.10
2023-03-22T12:18:31.808Z,1.58
2023-03-22T12:21:00.795Z,2.08
2023-03-22T12:23:31.377Z,1.27
2023-03-22T12:26:28.150Z,3.53
2023-03-22T12:29:22.172Z,1.40
2023-03-22T12:32:05.974Z,1.38
2023-03-22T12:34:47.688Z,1.98
2023-03-22T12:37:21.168Z,2.60
2023-03-22T12:40:15.411Z,1.23
2023-03-22T12:43:21.729Z,1.90
2023-03-22T12:45:53.519Z,1.23
2023-03-22T12:48:41.587Z,2.22
2023-03-22T12:51:12.951Z,1.40
2023-03-22T12:53:49.543Z,2.22
2023-03-22T12:56:20.887Z,1.42
2023-03-22T12:58:52.131Z,1.52
2023-03-22T13:01:31.026Z,1.65
2023-03-22T13:03:59.818Z,1.60
2023-03-22T13:06:58.995Z,1.20
2023-03-22T13:09:37.473Z,1.55
2023-03-22T13:12:17.104Z,1.05
2023-03-22T13:14:53.239Z,1.35
2023-03-22T13:17:23.653Z,1.70
2023-03-22T13:20:00.638Z,1.10
2023-03-22T13:22:51.371Z,1.35
2023-03-22T13:25:21.244Z,2.28
2023-03-22T13:27:59.377Z,1.50
2023-03-22T13:30:50.918Z,1.77
2023-03-22T13:33:21.360Z,2.25
2023-03-22T13:35:55.426Z,1.65
2023-03-22T13:38:29.769Z,1.27
2023-03-22T13:41:07.515Z,1.45
2023-03-22T13:43:47.789Z,2.25
2023-03-22T13:46:18.323Z,1.40
2023-03-22T13:48:49.607Z,1.42
2023-03-22T13:51:23.316Z,1.58
2023-03-22T13:54:09.214Z,1.08
2023-03-22T13:56:42.612Z,1.30
2023-03-22T13:59:19.475Z,1.63
2023-03-22T14:01:53.591Z,1.90
2023-03-22T14:04:35.249Z,1.58
2023-03-22T14:07:27.378Z,1.70
2023-03-22T14:10:21.047Z,1.30
2023-03-22T14:13:14.740Z,2.53
2023-03-22T14:15:50.180Z,1.38
2023-03-22T14:21:06.518Z,1.45
